Time;durP1;ratioP1;P1;durP2;ratioP2;P2;SDS_P1;SDS_P2;PMS_P1;PMS_P2;Temp;Humidity;BMP_temperature;BMP_pressure;BME280_temperature;BME280_humidity;BME280_pressure;Samples;Min_cycle;Max_cycle;Signal;HPM_P1;HPM_P2
2022/05/18 00:02:17;;;;;;;5.45;3.08;;;17.20;99.90;;;;;;5089987;28;20502;-81
2022/05/18 00:04:42;;;;;;;7.18;3.40;;;17.20;99.90;;;;;;5092264;28;20055;-81
2022/05/18 00:07:08;;;;;;;5.43;3.28;;;17.20;99.90;;;;;;5089847;28;20044;-81
2022/05/18 00:09:34;;;;;;;5.22;3.35;;;17.10;99.90;;;;;;5093692;28;20047;-81
2022/05/18 00:11:59;;;;;;;4.80;3.38;;;17.10;99.90;;;;;;5091824;28;20050;-81
2022/05/18 00:14:25;;;;;;;6.22;3.50;;;17.10;99.90;;;;;;5093131;28;20060;-81
2022/05/18 00:16:50;;;;;;;7.60;3.30;;;17.00;99.90;;;;;;5087847;28;20072;-81
2022/05/18 00:19:16;;;;;;;5.40;3.53;;;17.10;99.90;;;;;;5090100;28;20118;-81
2022/05/18 00:21:42;;;;;;;5.80;3.67;;;17.00;99.90;;;;;;5090625;28;20119;-81
2022/05/18 00:24:08;;;;;;;5.65;3.40;;;17.00;99.90;;;;;;5092361;28;20036;-81
2022/05/18 00:26:33;;;;;;;5.20;3.72;;;17.00;99.90;;;;;;5078155;28;20128;-80
2022/05/18 00:28:59;;;;;;;5.85;3.80;;;17.00;99.90;;;;;;5077617;28;20178;-81
2022/05/18 00:31:25;;;;;;;7.13;4.35;;;17.00;99.90;;;;;;5091081;28;20113;-81
2022/05/18 00:33:50;;;;;;;8.07;3.88;;;16.90;99.90;;;;;;5078463;28;20035;-81
2022/05/18 00:36:16;;;;;;;9.43;3.88;;;16.90;99.90;;;;;;5089131;28;20048;-81
2022/05/18 00:38:41;;;;;;;6.95;4.28;;;16.90;99.90;;;;;;5074158;28;20068;-81
2022/05/18 00:41:07;;;;;;;5.53;4.03;;;16.90;99.90;;;;;;5088953;28;20526;-81
2022/05/18 00:43:33;;;;;;;4.75;3.67;;;16.80;99.90;;;;;;5090418;28;20052;-81
2022/05/18 00:46:00;;;;;;;6.07;4.20;;;16.80;99.90;;;;;;5093382;28;20044;-81
2022/05/18 00:48:26;;;;;;;6.63;4.13;;;16.80;99.90;;;;;;5090916;28;20055;-80
2022/05/18 00:50:52;;;;;;;6.20;4.40;;;16.70;99.90;;;;;;5089532;28;20408;-82
2022/05/18 00:53:19;;;;;;;6.05;4.47;;;16.70;99.90;;;;;;5078320;28;20727;-81
2022/05/18 00:55:55;;;;;;;8.65;4.45;;;16.70;99.90;;;;;;5088499;28;20404;-81
2022/05/18 00:58:35;;;;;;;8.93;4.32;;;16.70;99.90;;;;;;5080795;28;20085;-81
2022/05/18 01:01:01;;;;;;;7.60;4.70;;;16.70;99.90;;;;;;5088140;28;20044;-82
2022/05/18 01:03:40;;;;;;;5.95;4.20;;;16.60;99.90;;;;;;5087682;28;20048;-81
2022/05/18 01:06:47;;;;;;;7.18;4.47;;;16.60;99.90;;;;;;5086668;28;20120;-80
2022/05/18 01:09:35;;;;;;;6.75;4.30;;;16.60;99.90;;;;;;5068727;28;20404;-80
2022/05/18 01:12:01;;;;;;;7.85;4.32;;;16.60;99.90;;;;;;5048725;28;20195;-82
2022/05/18 01:14:29;;;;;;;4.85;4.38;;;16.60;99.90;;;;;;5088767;28;20118;-80
2022/05/18 01:16:55;;;;;;;7.93;4.47;;;16.50;99.90;;;;;;5071959;28;20055;-81
2022/05/18 01:19:33;;;;;;;8.05;4.93;;;16.50;99.90;;;;;;5078903;28;20037;-81
2022/05/18 01:22:06;;;;;;;9.93;4.75;;;16.50;99.90;;;;;;5090649;28;20058;-80
2022/05/18 01:24:46;;;;;;;7.78;5.05;;;16.50;99.90;;;;;;5090622;28;20073;-82
2022/05/18 01:27:12;;;;;;;7.35;4.90;;;16.50;99.90;;;;;;5061529;28;20044;-81
2022/05/18 01:29:38;;;;;;;7.25;4.10;;;16.40;99.90;;;;;;5078899;28;20040;-81
2022/05/18 01:32:04;;;;;;;8.55;4.63;;;16.50;99.90;;;;;;5092470;28;20050;-81
2022/05/18 01:34:32;;;;;;;6.85;4.80;;;16.40;99.90;;;;;;5067001;28;20453;-81
2022/05/18 01:36:57;;;;;;;6.45;4.47;;;16.40;99.90;;;;;;5082802;28;20083;-80
2022/05/18 01:39:48;;;;;;;7.00;4.80;;;16.40;99.90;;;;;;5088324;28;20048;-81
2022/05/18 01:42:26;;;;;;;;;;;16.40;99.90;;;;;;5091381;28;20043;-81
2022/05/18 01:44:51;;;;;;;7.75;5.18;;;16.30;99.90;;;;;;5085732;28;20346;-81
2022/05/18 01:47:17;;;;;;;7.68;4.78;;;16.20;99.90;;;;;;5089090;28;20131;-81
2022/05/18 01:49:43;;;;;;;8.20;4.80;;;16.20;99.90;;;;;;5069127;28;20488;-81
2022/05/18 01:52:10;;;;;;;6.68;4.82;;;16.20;99.90;;;;;;5072846;28;20056;-81
2022/05/18 01:54:40;;;;;;;7.05;4.40;;;16.20;99.90;;;;;;5082583;28;20118;-81
2022/05/18 01:57:06;;;;;;;7.20;4.72;;;16.20;99.90;;;;;;5091326;28;20048;-81
2022/05/18 01:59:31;;;;;;;8.43;5.30;;;16.10;99.90;;;;;;5074130;28;20447;-82
2022/05/18 02:01:58;;;;;;;8.48;4.30;;;16.20;99.90;;;;;;5082529;28;20051;-80
2022/05/18 02:04:23;;;;;;;7.15;4.70;;;16.10;99.90;;;;;;5090285;28;20060;-81
2022/05/18 02:06:49;;;;;;;8.05;4.80;;;16.10;99.90;;;;;;5065229;28;20048;-80
2022/05/18 02:09:16;;;;;;;6.82;4.50;;;16.10;99.90;;;;;;5078139;28;20079;-81
2022/05/18 02:11:43;;;;;;;7.15;4.40;;;16.00;99.90;;;;;;5079581;28;20123;-80
2022/05/18 02:14:09;;;;;;;7.72;4.13;;;16.00;99.90;;;;;;5091032;28;20048;-81
2022/05/18 02:16:36;;;;;;;5.85;4.28;;;16.00;99.90;;;;;;5090779;28;20073;-80
2022/05/18 02:19:01;;;;;;;6.22;4.47;;;15.90;99.90;;;;;;5088477;28;20051;-81
2022/05/18 02:21:27;;;;;;;6.82;4.10;;;15.90;99.90;;;;;;5081081;28;20040;-81
2022/05/18 02:23:53;;;;;;;6.10;4.10;;;15.80;99.90;;;;;;5091600;28;20449;-80
2022/05/18 02:26:19;;;;;;;5.70;4.35;;;15.90;99.90;;;;;;5090721;28;20044;-80
2022/05/18 02:28:45;;;;;;;9.05;4.50;;;15.80;99.90;;;;;;5090406;28;20458;-80
2022/05/18 02:31:11;;;;;;;9.00;4.20;;;15.80;99.90;;;;;;5057239;28;20136;-85
2022/05/18 02:33:37;;;;;;;7.70;4.70;;;15.80;99.90;;;;;;5089108;28;20123;-80
2022/05/18 02:36:03;;;;;;;4.95;4.38;;;15.70;99.90;;;;;;5089212;28;20143;-80
2022/05/18 02:38:29;;;;;;;6.00;4.45;;;15.70;99.90;;;;;;5116547;27;20044;-81
2022/05/18 02:40:58;;;;;;;7.38;4.43;;;15.70;99.90;;;;;;5092931;28;20067;-80
2022/05/18 02:43:24;;;;;;;8.63;4.78;;;15.60;99.90;;;;;;5095982;28;20040;-80
2022/05/18 02:45:49;;;;;;;5.38;4.60;;;15.60;99.90;;;;;;5089041;28;20045;-80
2022/05/18 02:48:16;;;;;;;6.30;4.40;;;15.60;99.90;;;;;;5074298;28;20045;-80
2022/05/18 02:50:44;;;;;;;7.82;4.97;;;15.50;99.90;;;;;;5082981;28;20068;-84
2022/05/18 02:53:10;;;;;;;7.35;4.53;;;15.50;99.90;;;;;;5077470;28;20053;-80
2022/05/18 02:58:20;;;;;;;5.78;4.20;;;15.50;99.90;;;;;;5073188;28;20136;-80
2022/05/18 03:00:46;;;;;;;7.18;5.47;;;15.40;99.90;;;;;;5093766;28;20054;-81
2022/05/18 03:03:12;;;;;;;6.63;5.00;;;15.40;99.90;;;;;;5076346;28;20041;-80
2022/05/18 03:05:38;;;;;;;6.22;4.85;;;15.40;99.90;;;;;;5074805;28;20099;-81
2022/05/18 03:08:05;;;;;;;5.15;4.40;;;15.40;99.90;;;;;;5074763;28;20122;-80
2022/05/18 03:10:31;;;;;;;6.65;4.78;;;15.30;99.90;;;;;;5057460;28;20106;-81
2022/05/18 03:12:57;;;;;;;6.97;5.38;;;15.30;99.90;;;;;;5110799;27;20048;-80
2022/05/18 03:15:22;;;;;;;9.20;5.05;;;15.20;99.90;;;;;;5095142;28;20072;-81
2022/05/18 03:17:48;;;;;;;6.45;4.90;;;15.20;99.90;;;;;;5074455;28;20071;-80
2022/05/18 03:23:33;;;;;;;5.63;4.97;;;15.20;99.90;;;;;;5074846;28;20450;-81
2022/05/18 03:25:43;;;;;;;6.88;5.18;;;15.00;99.90;;;;;;5074595;28;20127;-81
2022/05/18 03:28:09;;;;;;;8.32;5.10;;;15.00;99.90;;;;;;5082533;28;20132;-80
2022/05/18 03:30:35;;;;;;;8.73;4.95;;;15.00;99.90;;;;;;5090815;28;20043;-81
2022/05/18 03:33:00;;;;;;;6.25;4.82;;;14.90;99.90;;;;;;5086589;28;20668;-80
2022/05/18 03:35:26;;;;;;;6.63;5.50;;;14.90;99.90;;;;;;5109151;28;20387;-80
2022/05/18 03:37:51;;;;;;;7.22;5.40;;;14.90;99.90;;;;;;5074851;28;20452;-81
2022/05/18 03:40:17;;;;;;;10.02;5.70;;;14.80;99.90;;;;;;5074798;28;20041;-80
2022/05/18 03:42:43;;;;;;;6.78;5.28;;;14.80;99.90;;;;;;5089355;28;20056;-81
2022/05/18 03:45:09;;;;;;;5.65;5.10;;;14.80;99.90;;;;;;5074311;28;20048;-81
2022/05/18 03:47:34;;;;;;;10.20;5.68;;;14.80;99.90;;;;;;5072969;28;20049;-81
2022/05/18 03:50:00;;;;;;;6.32;5.63;;;14.80;99.90;;;;;;5086083;28;20177;-80
2022/05/18 03:52:26;;;;;;;7.03;5.35;;;14.70;99.90;;;;;;5093553;28;20124;-80
2022/05/18 03:54:52;;;;;;;7.72;5.43;;;14.70;99.90;;;;;;5084059;28;20039;-81
2022/05/18 03:57:19;;;;;;;9.18;5.90;;;14.70;99.90;;;;;;5074015;28;20153;-81
2022/05/18 03:59:44;;;;;;;6.55;5.38;;;14.70;99.90;;;;;;5073680;28;20492;-81
2022/05/18 04:02:10;;;;;;;7.28;5.38;;;14.60;99.90;;;;;;5056525;28;20047;-81
2022/05/18 04:04:36;;;;;;;7.15;5.40;;;14.60;99.90;;;;;;5073331;28;20118;-82
2022/05/18 04:07:01;;;;;;;9.10;5.70;;;14.60;99.90;;;;;;5090913;28;20109;-82
2022/05/18 04:09:27;;;;;;;8.57;5.40;;;14.60;99.90;;;;;;5074929;28;20052;-81
2022/05/18 04:11:53;;;;;;;10.05;5.40;;;14.60;99.90;;;;;;5073740;28;20049;-81
2022/05/18 04:14:18;;;;;;;7.32;5.53;;;14.60;99.90;;;;;;5077980;28;20047;-81
2022/05/18 04:16:48;;;;;;;8.80;5.40;;;14.60;99.90;;;;;;5078934;28;20045;-81
2022/05/18 04:19:15;;;;;;;7.53;5.63;;;14.60;99.90;;;;;;5072734;28;20053;-81
2022/05/18 04:21:41;;;;;;;7.43;5.85;;;14.60;99.90;;;;;;5071780;28;20044;-81
2022/05/18 04:24:07;;;;;;;8.98;5.57;;;14.60;99.90;;;;;;5089077;28;20365;-81
2022/05/18 04:26:32;;;;;;;6.82;5.20;;;14.60;99.90;;;;;;5075510;28;20440;-81
2022/05/18 04:28:58;;;;;;;8.25;5.80;;;14.60;99.90;;;;;;5071587;28;20536;-80
2022/05/18 04:31:23;;;;;;;9.48;6.32;;;14.60;99.90;;;;;;5093900;28;20036;-81
2022/05/18 04:33:49;;;;;;;8.80;5.97;;;14.60;99.90;;;;;;5099128;28;20040;-82
2022/05/18 04:36:15;;;;;;;7.95;5.90;;;14.60;99.90;;;;;;5114302;28;20044;-81
2022/05/18 04:38:40;;;;;;;8.77;6.18;;;14.70;99.90;;;;;;5102858;28;20031;-85
2022/05/18 04:41:06;;;;;;;9.27;6.85;;;14.70;99.90;;;;;;5114243;28;20039;-85
2022/05/18 04:43:32;;;;;;;10.25;6.22;;;14.70;99.90;;;;;;5098029;28;20035;-82
2022/05/18 04:45:58;;;;;;;8.02;6.22;;;14.70;99.90;;;;;;5098106;28;20024;-83
2022/05/18 04:48:24;;;;;;;7.47;6.20;;;14.70;99.90;;;;;;5114483;28;20034;-83
2022/05/18 04:50:50;;;;;;;7.13;5.60;;;14.80;99.90;;;;;;5091522;28;20048;-81
2022/05/18 04:53:16;;;;;;;8.07;5.93;;;14.80;99.90;;;;;;5073547;28;20039;-80
2022/05/18 04:55:42;;;;;;;7.72;6.30;;;14.90;99.90;;;;;;5084765;28;20039;-82
2022/05/18 04:58:08;;;;;;;8.70;6.60;;;14.90;99.90;;;;;;5093628;28;20100;-81
2022/05/18 05:00:34;;;;;;;6.85;5.97;;;15.00;99.90;;;;;;5089981;28;20040;-80
2022/05/18 05:02:59;;;;;;;8.45;7.20;;;15.10;99.90;;;;;;5093496;28;20464;-81
2022/05/18 05:05:28;;;;;;;7.40;6.57;;;15.10;99.90;;;;;;5091437;28;20052;-82
2022/05/18 05:07:54;;;;;;;10.88;6.53;;;15.20;99.90;;;;;;5074706;28;20052;-82
2022/05/18 05:10:20;;;;;;;9.48;6.50;;;15.30;99.90;;;;;;5090390;28;20100;-82
2022/05/18 05:12:46;;;;;;;7.63;6.47;;;15.30;99.90;;;;;;5074104;28;20077;-83
2022/05/18 05:15:12;;;;;;;8.32;6.15;;;15.40;99.90;;;;;;5088857;28;20084;-82
2022/05/18 05:17:38;;;;;;;8.63;6.55;;;15.40;99.90;;;;;;5083101;28;20109;-82
2022/05/18 05:20:04;;;;;;;7.35;6.65;;;15.40;99.90;;;;;;5104906;28;20044;-82
2022/05/18 05:22:29;;;;;;;8.88;6.60;;;15.40;99.90;;;;;;5089354;28;20154;-81
2022/05/18 05:24:55;;;;;;;8.60;6.38;;;15.50;99.90;;;;;;5091538;28;20035;-81
2022/05/18 05:27:21;;;;;;;8.68;6.95;;;15.50;99.90;;;;;;5088144;28;20043;-82
2022/05/18 05:29:47;;;;;;;10.95;6.78;;;15.50;99.90;;;;;;5091491;28;20087;-83
2022/05/18 05:32:12;;;;;;;10.07;7.40;;;15.60;99.90;;;;;;5074595;28;20105;-82
2022/05/18 05:34:38;;;;;;;8.75;6.63;;;15.50;99.90;;;;;;5073377;28;20128;-84
2022/05/18 05:37:04;;;;;;;9.25;7.22;;;15.50;99.90;;;;;;5075181;28;20040;-82
2022/05/18 05:39:30;;;;;;;11.02;8.27;;;15.60;99.90;;;;;;5091602;28;20048;-82
2022/05/18 05:41:55;;;;;;;10.82;8.32;;;15.60;99.90;;;;;;5088047;28;20040;-82
2022/05/18 05:44:22;;;;;;;9.43;8.13;;;15.70;99.90;;;;;;5088014;28;20076;-82
2022/05/18 05:46:47;;;;;;;9.32;8.43;;;15.70;99.90;;;;;;5056699;28;20110;-82
2022/05/18 05:49:13;;;;;;;13.48;9.07;;;15.80;99.90;;;;;;5071940;28;20052;-82
2022/05/18 05:51:39;;;;;;;11.23;8.73;;;16.00;99.90;;;;;;5090723;28;20130;-82
2022/05/18 05:54:05;;;;;;;12.27;9.15;;;16.10;99.90;;;;;;5057863;28;20399;-83
2022/05/18 05:56:30;;;;;;;12.18;8.77;;;16.20;99.90;;;;;;5090561;28;20051;-82
2022/05/18 05:58:56;;;;;;;10.48;8.57;;;16.30;99.90;;;;;;5092376;28;20102;-82
2022/05/18 06:01:22;;;;;;;12.25;8.80;;;16.40;99.90;;;;;;5091465;28;20043;-81
2022/05/18 06:03:48;;;;;;;14.45;9.07;;;16.50;99.90;;;;;;5074736;28;20128;-82
2022/05/18 06:06:13;;;;;;;15.68;9.65;;;16.50;99.90;;;;;;5067880;28;20090;-83
2022/05/18 06:08:39;;;;;;;13.43;9.73;;;16.60;99.90;;;;;;5091630;28;20044;-83
2022/05/18 06:11:05;;;;;;;12.85;9.57;;;16.60;99.90;;;;;;5082352;28;20055;-84
2022/05/18 06:13:32;;;;;;;10.30;9.30;;;16.60;99.90;;;;;;5072974;28;20055;-83
2022/05/18 06:15:58;;;;;;;11.40;9.00;;;16.70;99.90;;;;;;5074843;28;20056;-83
2022/05/18 06:18:24;;;;;;;11.75;9.70;;;16.80;99.90;;;;;;5078797;28;20400;-82
2022/05/18 06:20:49;;;;;;;12.20;9.05;;;16.80;99.90;;;;;;5058301;28;20055;-82
2022/05/18 06:23:16;;;;;;;10.80;9.38;;;16.80;99.90;;;;;;5075784;28;20071;-83
2022/05/18 06:25:42;;;;;;;10.50;9.40;;;16.80;99.90;;;;;;5074322;28;20036;-83
2022/05/18 06:28:09;;;;;;;13.32;9.30;;;16.80;99.90;;;;;;5076140;28;20495;-83
2022/05/18 06:30:36;;;;;;;11.15;9.15;;;16.80;99.90;;;;;;5058468;28;20451;-83
2022/05/18 06:33:02;;;;;;;13.90;8.95;;;16.90;99.90;;;;;;5075638;28;20095;-84
2022/05/18 06:35:27;;;;;;;14.10;9.40;;;16.90;99.90;;;;;;5074962;28;20058;-83
2022/05/18 06:37:53;;;;;;;10.43;9.35;;;16.90;99.90;;;;;;5099736;28;20062;-83
2022/05/18 06:40:19;;;;;;;12.13;9.32;;;17.00;99.90;;;;;;5096831;28;20048;-82
2022/05/18 06:42:45;;;;;;;12.63;9.63;;;17.00;99.90;;;;;;5094469;28;20044;-82
2022/05/18 06:45:11;;;;;;;12.60;9.02;;;17.10;99.90;;;;;;5102693;28;20040;-83
2022/05/18 06:47:37;;;;;;;10.90;9.43;;;17.10;99.90;;;;;;5089759;28;20048;-83
2022/05/18 06:50:04;;;;;;;15.73;9.77;;;17.20;99.90;;;;;;5066459;28;20062;-85
2022/05/18 06:52:29;;;;;;;16.70;9.77;;;17.30;99.90;;;;;;5132980;28;20048;-82
2022/05/18 06:54:55;;;;;;;13.85;9.23;;;17.40;99.90;;;;;;5113364;28;20081;-84
2022/05/18 06:57:21;;;;;;;11.98;9.82;;;17.50;99.90;;;;;;5108848;28;20035;-82
2022/05/18 06:59:47;;;;;;;10.40;8.85;;;17.50;99.90;;;;;;5120005;28;20040;-83
2022/05/18 07:02:13;;;;;;;10.85;9.13;;;17.70;99.90;;;;;;5101472;28;20040;-82
2022/05/18 07:04:38;;;;;;;12.57;8.75;;;17.80;99.90;;;;;;5105365;28;20109;-82
2022/05/18 07:07:04;;;;;;;12.70;8.68;;;17.90;99.90;;;;;;5085641;28;20123;-81
2022/05/18 07:09:30;;;;;;;9.57;7.57;;;17.90;99.90;;;;;;5085049;28;20036;-83
2022/05/18 07:11:56;;;;;;;12.52;7.97;;;18.00;99.90;;;;;;5087175;28;20500;-83
2022/05/18 07:14:23;;;;;;;11.15;7.32;;;18.10;99.90;;;;;;5073300;28;20044;-82
2022/05/18 07:16:49;;;;;;;9.15;6.22;;;18.20;99.90;;;;;;5068732;28;20056;-83
2022/05/18 07:19:15;;;;;;;12.55;7.13;;;18.30;99.90;;;;;;5090198;28;20058;-84
2022/05/18 07:21:45;;;;;;;9.60;7.38;;;18.40;99.90;;;;;;5061104;28;20133;-90
2022/05/18 07:24:10;;;;;;;9.00;6.45;;;18.50;99.90;;;;;;5093055;28;20043;-83
2022/05/18 07:26:36;;;;;;;13.60;7.57;;;18.70;99.90;;;;;;5060153;28;20048;-83
2022/05/18 07:29:03;;;;;;;9.43;7.40;;;18.90;99.90;;;;;;5062981;28;20036;-83
2022/05/18 07:32:08;;;;;;;10.80;7.10;;;19.20;99.90;;;;;;5092989;28;20059;-85
2022/05/18 07:34:17;;;;;;;10.55;7.68;;;19.50;99.90;;;;;;5070248;28;20048;-86
2022/05/18 07:36:43;;;;;;;8.82;7.85;;;19.80;99.90;;;;;;5056922;28;20047;-86
2022/05/18 07:39:11;;;;;;;9.45;6.95;;;20.10;99.90;;;;;;5074171;28;20048;-87
2022/05/18 07:41:37;;;;;;;11.13;6.60;;;20.50;99.90;;;;;;5093276;28;20044;-86
2022/05/18 07:44:03;;;;;;;9.60;6.93;;;20.70;99.90;;;;;;5060117;28;20102;-86
2022/05/18 07:46:28;;;;;;;7.95;7.15;;;21.00;99.90;;;;;;5093799;28;20079;-86
2022/05/18 07:48:54;;;;;;;10.45;7.10;;;21.20;99.90;;;;;;5093525;28;20048;-86
2022/05/18 07:51:20;;;;;;;9.45;6.05;;;21.30;99.30;;;;;;5084030;28;20400;-86
2022/05/18 07:53:45;;;;;;;8.93;6.05;;;21.50;98.60;;;;;;5093076;28;20127;-85
2022/05/18 07:56:12;;;;;;;9.48;6.32;;;21.50;97.70;;;;;;5089570;28;20130;-86
2022/05/18 07:58:37;;;;;;;8.48;5.30;;;21.60;96.60;;;;;;5094120;28;20055;-85
2022/05/18 08:01:03;;;;;;;9.63;6.32;;;21.60;96.60;;;;;;5094096;28;20044;-85
2022/05/18 08:03:28;;;;;;;8.63;6.22;;;21.60;95.90;;;;;;5094225;28;20048;-85
2022/05/18 08:05:54;;;;;;;9.88;7.03;;;21.70;95.60;;;;;;5094944;28;20130;-85
2022/05/18 08:08:21;;;;;;;11.05;6.60;;;21.70;95.40;;;;;;5095276;28;20050;-86
2022/05/18 08:16:15;;;;;;;14.18;6.38;;;21.70;95.10;;;;;;5093898;28;20044;-86
2022/05/18 08:18:41;;;;;;;8.10;6.30;;;21.70;95.10;;;;;;5093516;28;20039;-84
2022/05/18 08:21:06;;;;;;;7.07;5.57;;;21.80;94.80;;;;;;5077118;28;20463;-85
2022/05/18 08:23:32;;;;;;;8.82;4.88;;;21.80;92.80;;;;;;5093564;28;20127;-85
2022/05/18 08:25:58;;;;;;;6.32;5.72;;;21.90;91.90;;;;;;5093984;28;20059;-86
2022/05/18 08:28:23;;;;;;;9.05;5.18;;;21.90;91.20;;;;;;5093345;28;20043;-85
2022/05/18 08:30:49;;;;;;;6.38;5.63;;;22.00;90.80;;;;;;5094297;28;20040;-85
2022/05/18 08:33:15;;;;;;;8.68;6.28;;;22.10;90.80;;;;;;5093254;28;20047;-85
2022/05/18 08:35:43;;;;;;;10.70;6.53;;;22.20;90.20;;;;;;5094653;28;20051;-85
2022/05/18 08:38:10;;;;;;;9.27;6.43;;;22.30;90.20;;;;;;5076834;28;20044;-85
2022/05/18 08:40:52;;;;;;;12.13;6.72;;;22.40;90.50;;;;;;5092847;28;20122;-85
2022/05/18 08:43:44;;;;;;;10.77;6.97;;;22.50;88.70;;;;;;5076367;28;20356;-85
2022/05/18 08:46:16;;;;;;;11.50;7.18;;;22.50;88.40;;;;;;5062516;28;20044;-85
2022/05/18 08:48:46;;;;;;;13.82;7.15;;;22.50;86.30;;;;;;5093207;28;20066;-85
2022/05/18 08:52:10;;;;;;;9.10;7.82;;;22.50;86.10;;;;;;5075560;28;20480;-85
2022/05/18 08:55:27;;;;;;;8.82;7.07;;;22.50;87.60;;;;;;5038389;28;20048;-84
2022/05/18 08:57:53;;;;;;;11.80;6.72;;;22.60;85.60;;;;;;5076477;28;20056;-85
2022/05/18 09:00:30;;;;;;;11.25;8.20;;;22.60;85.00;;;;;;5075710;28;20051;-85
2022/05/18 09:03:05;;;;;;;10.60;7.35;;;22.70;84.70;;;;;;5093362;28;20444;-84
2022/05/18 09:05:42;;;;;;;8.82;7.70;;;22.70;85.30;;;;;;5075408;28;20424;-85
2022/05/18 09:08:46;;;;;;;10.45;7.68;;;22.80;84.00;;;;;;5076156;28;20468;-85
2022/05/18 09:11:19;;;;;;;12.93;6.85;;;23.00;82.90;;;;;;5063632;28;20049;-86
2022/05/18 09:13:45;;;;;;;8.52;7.13;;;23.00;82.10;;;;;;5111391;28;20036;-85
2022/05/18 09:16:19;;;;;;;12.50;7.68;;;23.00;83.00;;;;;;5117817;28;20031;-85
2022/05/18 09:18:47;;;;;;;11.02;7.55;;;23.10;82.20;;;;;;5100652;28;20040;-85
2022/05/18 09:21:13;;;;;;;8.88;6.90;;;23.20;83.50;;;;;;5118157;28;20032;-86
2022/05/18 09:23:55;;;;;;;11.75;7.15;;;23.20;81.50;;;;;;5117470;28;20060;-86
2022/05/18 09:26:58;;;;;;;10.05;7.28;;;23.30;80.40;;;;;;5100501;28;20032;-87
2022/05/18 09:29:30;;;;;;;13.20;7.57;;;23.50;81.50;;;;;;5117194;28;20063;-87
2022/05/18 09:32:03;;;;;;;11.88;7.35;;;23.70;79.10;;;;;;5117528;28;20024;-84
2022/05/18 09:34:53;;;;;;;11.65;7.00;;;23.70;78.20;;;;;;5100207;28;20087;-86
2022/05/18 09:37:23;;;;;;;12.10;9.15;;;23.90;79.40;;;;;;5107927;28;20048;-85
2022/05/18 09:40:03;;;;;;;10.48;6.55;;;24.00;79.00;;;;;;5092816;28;20099;-82
2022/05/18 09:42:33;;;;;;;8.77;6.65;;;24.00;76.60;;;;;;5093409;28;20055;-81
2022/05/18 09:45:07;;;;;;;10.15;8.35;;;24.10;77.40;;;;;;5092009;28;20127;-81
2022/05/18 09:47:37;;;;;;;11.80;9.02;;;24.20;77.80;;;;;;5092869;28;20084;-82
2022/05/18 09:50:06;;;;;;;12.77;8.35;;;24.20;76.80;;;;;;5097489;28;20122;-81
2022/05/18 09:52:32;;;;;;;13.50;8.10;;;24.20;77.00;;;;;;5079380;28;20044;-81
2022/05/18 09:54:59;;;;;;;10.55;8.68;;;24.40;76.40;;;;;;5079557;28;20048;-82
2022/05/18 09:57:33;;;;;;;15.50;9.98;;;24.40;75.90;;;;;;5095480;28;20433;-82
2022/05/18 10:00:10;;;;;;;10.52;8.80;;;24.50;75.60;;;;;;5096912;28;20051;-81
2022/05/18 10:08:20;;;;;;;14.48;10.75;;;24.60;77.70;;;;;;5097181;28;20505;-81
2022/05/18 10:10:46;;;;;;;;;;;24.70;78.50;;;;;;5079801;28;20046;-80
2022/05/18 10:13:14;;;;;;;14.63;10.98;;;24.80;80.40;;;;;;5079097;28;20002;-82
2022/05/18 10:15:43;;;;;;;13.50;10.38;;;24.80;76.80;;;;;;5062153;28;20051;-82
2022/05/18 10:18:29;;;;;;;15.07;12.07;;;24.80;77.20;;;;;;5078861;28;20119;-81
2022/05/18 10:21:10;;;;;;;14.23;11.77;;;24.90;76.20;;;;;;5095205;28;20040;-81
2022/05/18 10:23:46;;;;;;;16.45;10.93;;;24.90;76.10;;;;;;5095631;28;20136;-81
2022/05/18 10:26:28;;;;;;;14.57;9.95;;;25.00;77.50;;;;;;5095156;28;20048;-80
2022/05/18 10:28:59;;;;;;;11.05;9.23;;;25.10;74.70;;;;;;5095036;28;20087;-81
2022/05/18 10:31:27;;;;;;;12.55;9.60;;;25.20;72.20;;;;;;5094862;28;20442;-82
2022/05/18 10:33:57;;;;;;;12.80;9.10;;;25.30;72.20;;;;;;5094934;28;20044;-80
2022/05/18 10:36:25;;;;;;;10.25;8.93;;;25.30;70.50;;;;;;5078455;28;20039;-82
2022/05/18 10:38:55;;;;;;;12.93;8.98;;;25.30;70.40;;;;;;5094225;28;20044;-81
2022/05/18 10:41:26;;;;;;;13.85;8.65;;;25.30;70.70;;;;;;5094792;28;20490;-81
2022/05/18 10:43:54;;;;;;;11.02;8.05;;;25.40;70.90;;;;;;5094387;28;20426;-81
2022/05/18 10:46:44;;;;;;;9.95;8.48;;;25.40;72.10;;;;;;5095532;28;20463;-81
2022/05/18 10:49:21;;;;;;;12.93;8.50;;;25.40;70.20;;;;;;5079248;28;20050;-81
2022/05/18 10:51:49;;;;;;;12.98;9.23;;;25.30;71.90;;;;;;5094459;28;20122;-82
2022/05/18 10:54:25;;;;;;;10.35;9.05;;;25.40;72.60;;;;;;5094476;28;20040;-81
2022/05/18 10:56:52;;;;;;;11.27;8.27;;;25.40;72.20;;;;;;5094253;28;20048;-82
2022/05/18 10:59:32;;;;;;;8.95;8.05;;;25.40;74.10;;;;;;5076943;28;20392;-81
2022/05/18 11:02:04;;;;;;;9.23;8.32;;;25.50;73.40;;;;;;5094558;28;20379;-81
2022/05/18 11:04:38;;;;;;;11.38;7.40;;;25.50;72.20;;;;;;5078417;28;20044;-80
2022/05/18 11:07:05;;;;;;;10.45;7.97;;;25.60;71.90;;;;;;5078322;28;20372;-82
2022/05/18 11:09:32;;;;;;;8.60;6.82;;;25.70;70.90;;;;;;5094305;28;20069;-80
2022/05/18 11:12:16;;;;;;;9.95;6.35;;;25.80;70.50;;;;;;5095570;28;20044;-82
2022/05/18 11:15:06;;;;;;;11.57;7.60;;;25.80;71.00;;;;;;5093845;28;20036;-82
2022/05/18 11:17:37;;;;;;;9.73;6.90;;;25.90;71.50;;;;;;5094128;28;20054;-81
2022/05/18 11:20:16;;;;;;;8.98;6.60;;;25.90;72.60;;;;;;5094478;28;20470;-82
2022/05/18 11:22:54;;;;;;;9.60;7.22;;;26.00;70.50;;;;;;5093707;28;20044;-82
2022/05/18 11:25:34;;;;;;;11.88;7.40;;;26.00;68.70;;;;;;5095042;28;20379;-82
2022/05/18 11:28:23;;;;;;;8.10;6.85;;;26.00;69.30;;;;;;5094330;28;20424;-82
2022/05/18 11:31:02;;;;;;;9.13;6.88;;;26.10;70.70;;;;;;5094493;28;20079;-83
2022/05/18 11:33:36;;;;;;;7.40;6.20;;;26.20;70.40;;;;;;5095568;28;20035;-82
2022/05/18 11:36:25;;;;;;;6.90;5.93;;;26.30;69.60;;;;;;5094347;28;20040;-86
2022/05/18 11:39:11;;;;;;;9.30;6.30;;;26.40;70.50;;;;;;5045512;28;20058;-84
2022/05/18 11:42:10;;;;;;;8.35;5.57;;;26.60;69.90;;;;;;5078007;28;20047;-85
2022/05/18 11:45:14;;;;;;;8.38;7.25;;;26.60;70.30;;;;;;5093247;28;20050;-92
2022/05/18 11:47:49;;;;;;;10.25;8.18;;;26.70;69.80;;;;;;5096832;28;20079;-96
2022/05/18 11:50:51;;;;;;;10.60;8.30;;;26.60;69.80;;;;;;5099874;28;20048;-83
2022/05/18 11:53:41;;;;;;;10.27;8.07;;;26.60;70.40;;;;;;5076859;28;20441;-84
2022/05/18 11:56:18;;;;;;;10.07;7.15;;;26.60;70.00;;;;;;5095708;28;20055;-84
2022/05/18 11:59:06;;;;;;;9.82;7.63;;;26.60;71.30;;;;;;5100001;28;20030;-86
2022/05/18 12:01:48;;;;;;;11.82;8.70;;;26.60;71.80;;;;;;5104210;28;20036;-84
2022/05/18 12:04:38;;;;;;;11.98;10.52;;;26.70;72.60;;;;;;5118628;28;20072;-83
2022/05/18 12:07:30;;;;;;;10.68;8.95;;;26.70;70.70;;;;;;5119161;28;20047;-86
2022/05/18 12:10:14;;;;;;;10.57;8.77;;;26.80;71.60;;;;;;5118728;28;20121;-84
2022/05/18 12:13:13;;;;;;;10.45;9.30;;;26.80;71.90;;;;;;5118323;28;20028;-86
2022/05/18 12:15:56;;;;;;;12.18;10.15;;;27.00;72.30;;;;;;5119262;28;20050;-84
2022/05/18 12:18:36;;;;;;;12.60;9.57;;;27.10;71.70;;;;;;5102018;28;20036;-84
2022/05/18 12:21:24;;;;;;;12.18;10.30;;;27.20;72.10;;;;;;5118808;28;20035;-85
2022/05/18 12:23:52;;;;;;;13.45;10.18;;;27.20;71.70;;;;;;5110500;28;20047;-84
2022/05/18 12:26:20;;;;;;;12.23;10.63;;;27.20;71.20;;;;;;5095644;28;20077;-82
2022/05/18 12:28:45;;;;;;;11.07;9.20;;;27.30;71.90;;;;;;5094765;28;20467;-86
2022/05/18 12:31:11;;;;;;;14.57;10.50;;;27.40;71.20;;;;;;5061086;28;20051;-86
2022/05/18 12:33:47;;;;;;;12.10;10.80;;;27.50;69.80;;;;;;5077009;28;20093;-85
2022/05/18 12:36:23;;;;;;;14.75;11.73;;;27.40;69.40;;;;;;5092910;28;20040;-86
2022/05/18 12:38:57;;;;;;;10.65;9.55;;;27.30;69.90;;;;;;5076947;28;20044;-83
2022/05/18 12:41:27;;;;;;;12.52;9.85;;;27.20;69.40;;;;;;5092630;28;20048;-83
2022/05/18 12:44:25;;;;;;;8.73;7.93;;;27.10;69.40;;;;;;5059723;28;20099;-82
2022/05/18 12:46:57;;;;;;;10.65;9.65;;;27.00;70.00;;;;;;5092944;28;20040;-83
2022/05/18 12:49:37;;;;;;;15.98;11.73;;;27.00;70.20;;;;;;5093985;28;20047;-87
2022/05/18 12:52:36;;;;;;;16.00;9.52;;;27.00;70.90;;;;;;5092579;28;20039;-88
2022/05/18 12:55:39;;;;;;;13.07;11.52;;;27.10;72.40;;;;;;5070641;28;20059;-88
2022/05/18 12:58:09;;;;;;;12.02;10.68;;;27.10;71.00;;;;;;5094041;28;20044;-87
2022/05/18 13:00:38;;;;;;;15.63;12.13;;;27.00;71.90;;;;;;5093854;28;20040;-87
2022/05/18 13:03:09;;;;;;;13.93;11.20;;;27.00;70.70;;;;;;5095454;28;20067;-87
2022/05/18 13:05:46;;;;;;;14.05;10.93;;;27.00;70.90;;;;;;5094244;28;20056;-87
2022/05/18 13:08:24;;;;;;;18.02;15.48;;;26.90;72.20;;;;;;5095114;28;20075;-87
2022/05/18 13:11:09;;;;;;;15.80;14.15;;;26.90;71.40;;;;;;5093961;28;20502;-86
2022/05/18 13:13:55;;;;;;;15.10;13.05;;;26.90;72.60;;;;;;5094887;28;20040;-88
2022/05/18 13:16:39;;;;;;;16.30;13.63;;;26.80;72.10;;;;;;5094817;28;20107;-88
2022/05/18 13:19:14;;;;;;;18.02;13.35;;;26.90;72.70;;;;;;5094489;28;20498;-87